BBC Congo — V2EL3 — position and weather

sailwx.info

Track history (hours):
 
Tides and Currents Weather Stations Pressure Air Temp Water Temp Dewpoint Dewpoint Depression Visibility Wind Speed Wind Dir Waves Ship Positions

BBC Congo

Last reported at 2018-Jan-11 20:58 UTC. Time now 2018-Jan-20 01:44 UTC.
Position N 48°30' W 006°35'.
Warning: this ship's position is 8 days out of date.

Length 142 m; draft 7.8 m.

Type: Ship. MMSI: 305466000.

Date/timePositionNaut miles runAvg speedWind from/ knotsBaromVisibWave heightAir tempDewpointWater temp
2018-Jan-11 20:58N 48°30' W 006°35'3913.3
2018-Jan-11 18:04N 48°52' W 005°48'114.4
2018-Jan-11 17:59N 48°53' W 005°47'8912.0
2018-Jan-11 10:32N 49°40' W 003°50'012.4
2018-Jan-11 10:30N 49°40' W 003°49'912.6
2018-Jan-11 09:47N 49°45' W 003°37'413.0
2018-Jan-11 09:27N 49°47' W 003°31'613.2
2018-Jan-11 09:00N 49°49' W 003°23'713.5
2018-Jan-11 08:31N 49°52' W 003°14'713.7
2018-Jan-11 08:00N 49°56' W 003°04'713.6
2018-Jan-11 07:30N 49°59' W 002°55'713.5
2018-Jan-11 07:01N 50°02' W 002°45'713.2
2018-Jan-11 06:30N 50°04' W 002°35'8511.8
2018-Jan-10 23:19N 50°26' W 000°27'413.8
2018-Jan-10 23:00N 50°27' W 000°20'713.8
2018-Jan-10 22:30N 50°29' W 000°10'713.9
2018-Jan-10 22:00N 50°31' E 000°00'713.8
2018-Jan-10 21:30N 50°33' E 000°11'713.6
2018-Jan-10 21:00N 50°35' E 000°21'713.2
2018-Jan-10 20:30N 50°37' E 000°31'612.8
2018-Jan-10 20:00N 50°40' E 000°40'612.5
2018-Jan-10 19:30N 50°44' E 000°48'612.0
2018-Jan-10 19:00N 50°47' E 000°55'611.5
2018-Jan-10 18:30N 50°51' E 001°02'611.3
2018-Jan-10 18:00N 50°54' E 001°10'511.0
2018-Jan-10 17:30N 50°58' E 001°16'510.8
2018-Jan-10 17:00N 51°01' E 001°23'611.3
2018-Jan-10 16:30N 51°05' E 001°30'611.8
2018-Jan-10 16:00N 51°09' E 001°37'612.5
2018-Jan-10 15:30N 51°13' E 001°44'612.8
2018-Jan-10 15:00N 51°19' E 001°49'713.1
2018-Jan-10 14:30N 51°25' E 001°54'713.1
2018-Jan-10 14:00N 51°30' E 002°00'612.6
2018-Jan-10 13:30N 51°35' E 002°07'612.6
2018-Jan-10 13:00N 51°40' E 002°14'612.3
2018-Jan-10 12:29N 51°44' E 002°20'13311.7
2018-Jan-10 01:02N 53°29' E 004°37'111.0
2018-Jan-10 00:57N 53°29' E 004°39'511.2
2018-Jan-10 00:30N 53°31' E 004°47'611.3
2018-Jan-10 00:00N 53°33' E 004°56'511.0
2018-Jan-09 23:30N 53°34' E 005°04'710.6
2018-Jan-09 22:53N 53°37' E 005°15'8912.8
2018-Jan-09 15:56N 54°01' E 007°39'512.0
2018-Jan-09 15:30N 54°01' E 007°48'612.2
2018-Jan-09 15:00N 54°01' E 007°58'612.1
2018-Jan-09 14:30N 54°00' E 008°09'510.8
2018-Jan-09 14:00N 54°00' E 008°18'611.2
2018-Jan-09 13:30N 53°59' E 008°27'611.9
2018-Jan-09 13:00N 53°58' E 008°37'714.2
2018-Jan-09 12:30N 53°52' E 008°44'714.5
2018-Jan-09 12:00N 53°51' E 008°56'715.0
2018-Jan-09 11:30N 53°53' E 009°09'714.3
2018-Jan-09 11:00N 53°51' E 009°20'815.3
2018-Jan-09 10:30N 53°44' E 009°27'713.8
2018-Jan-09 10:01N 53°38' E 009°32'713.2
2018-Jan-09 09:31N 53°34' E 009°41'611.5
2018-Jan-09 09:01N 53°33' E 009°51'4 8.1
2018-Jan-09 08:31N 53°32' E 009°57'0 0.9
2018-Jan-09 07:59N 53°32' E 009°58'0 0.0
2018-Jan-09 07:29N 53°32' E 009°58'0 0.0
2018-Jan-09 06:59N 53°32' E 009°58'0 0.0
2018-Jan-09 06:29N 53°32' E 009°58'0 0.0
2018-Jan-09 05:59N 53°32' E 009°58'0 0.0
2018-Jan-09 05:29N 53°32' E 009°58'0 0.0
2018-Jan-09 04:59N 53°32' E 009°58'0 0.0
2018-Jan-09 04:29N 53°32' E 009°58'0 0.0
2018-Jan-09 03:59N 53°32' E 009°58'0 0.0
2018-Jan-09 03:29N 53°32' E 009°58'0 0.0
2018-Jan-09 03:00N 53°32' E 009°58'0 0.0
2018-Jan-09 02:29N 53°32' E 009°58'0 0.0
2018-Jan-09 01:59N 53°32' E 009°58'0 0.0
2018-Jan-09 01:29N 53°32' E 009°58'0 0.0
2018-Jan-09 00:56N 53°32' E 009°58'0 0.0
2018-Jan-09 00:29N 53°32' E 009°58'0 0.0
2018-Jan-08 23:59N 53°32' E 009°58'0 0.0
2018-Jan-08 23:29N 53°32' E 009°58'0 0.0
2018-Jan-08 22:59N 53°32' E 009°58'0 0.0
2018-Jan-08 22:29N 53°32' E 009°58'0 0.0
2018-Jan-08 21:59N 53°32' E 009°58'0 0.0
2018-Jan-08 21:29N 53°32' E 009°58'0 0.0
2018-Jan-08 20:56N 53°32' E 009°58'0 0.0
2018-Jan-08 20:29N 53°32' E 009°58'0 0.0
2018-Jan-08 19:59N 53°32' E 009°58'0 0.0
2018-Jan-08 19:29N 53°32' E 009°58'0 0.0
2018-Jan-08 18:59N 53°32' E 009°58'0 0.0
2018-Jan-08 18:29N 53°32' E 009°58'0 0.0
2018-Jan-08 17:59N 53°32' E 009°58'0 0.0
2018-Jan-08 17:29N 53°32' E 009°58'0 0.0
2018-Jan-08 16:59N 53°32' E 009°58'0 0.0
2018-Jan-08 16:29N 53°32' E 009°58'0 0.0
2018-Jan-08 15:59N 53°32' E 009°58'0 0.0
2018-Jan-08 15:29N 53°32' E 009°58'0 0.0
2018-Jan-08 14:59N 53°32' E 009°58'0 0.0
2018-Jan-08 14:29N 53°32' E 009°58'0 0.0
2018-Jan-08 13:59N 53°32' E 009°58'0 0.0
2018-Jan-08 13:29N 53°32' E 009°58'0 0.0
2018-Jan-08 12:59N 53°32' E 009°58'0 0.0
2018-Jan-08 12:29N 53°32' E 009°58'0 0.0
2018-Jan-08 11:59N 53°32' E 009°58'0 0.0
2018-Jan-08 11:29N 53°32' E 009°58'0 0.0
2018-Jan-08 11:01N 53°32' E 009°58'1 1.6
2018-Jan-08 10:31N 53°32' E 009°57'4 7.1
2018-Jan-08 10:01N 53°33' E 009°51'1 1.3
2018-Jan-08 09:29N 53°33' E 009°50'0 0.0
2018-Jan-08 08:59N 53°33' E 009°50'0 0.0
2018-Jan-08 08:29N 53°33' E 009°50'0 0.0
2018-Jan-08 07:59N 53°33' E 009°50'0 0.0
2018-Jan-08 07:29N 53°33' E 009°50'0 0.0
2018-Jan-08 06:59N 53°33' E 009°50'0 0.0
2018-Jan-08 06:29N 53°33' E 009°50'0 0.0
2018-Jan-08 05:56N 53°33' E 009°50'0 0.0
2018-Jan-08 05:29N 53°33' E 009°50'0 0.6
2018-Jan-08 05:00N 53°33' E 009°50'3 6.1
2018-Jan-08 04:30N 53°32' E 009°55'2 3.0
2018-Jan-08 04:00N 53°32' E 009°58'0 0.0
2018-Jan-08 03:30N 53°32' E 009°58'0 0.0
2018-Jan-08 03:00N 53°32' E 009°58'0 0.0
2018-Jan-08 02:30N 53°32' E 009°58'0 0.0
2018-Jan-08 02:00N 53°32' E 009°58'0 0.0
2018-Jan-08 01:30N 53°32' E 009°58'0 0.0
2018-Jan-08 00:57N 53°32' E 009°58'0 0.0
2018-Jan-08 00:30N 53°32' E 009°58'0 0.0
2018-Jan-08 00:00N 53°32' E 009°58'0 0.0
2018-Jan-07 23:30N 53°32' E 009°58'0 0.0
2018-Jan-07 23:00N 53°32' E 009°58'0 0.0
2018-Jan-07 22:30N 53°32' E 009°58'0 0.0
2018-Jan-07 21:57N 53°32' E 009°58'0 0.0
2018-Jan-07 21:30N 53°32' E 009°58'0 0.0
2018-Jan-07 21:00N 53°32' E 009°58'0 0.0
2018-Jan-07 20:27N 53°32' E 009°58'0 0.0
2018-Jan-07 20:00N 53°32' E 009°58'0 0.0
2018-Jan-07 19:30N 53°32' E 009°58'0 0.0
2018-Jan-07 19:00N 53°32' E 009°58'0 0.0
2018-Jan-07 18:30N 53°32' E 009°58'0 0.0
2018-Jan-07 18:00N 53°32' E 009°58'0 0.0
2018-Jan-07 17:30N 53°32' E 009°58'0 0.0
2018-Jan-07 17:00N 53°32' E 009°58'0 0.0
2018-Jan-07 16:30N 53°32' E 009°58'0 0.0
2018-Jan-07 16:00N 53°32' E 009°58'0 0.0
2018-Jan-07 15:30N 53°32' E 009°58'0 0.0
2018-Jan-07 15:00N 53°32' E 009°58'0 0.0
2018-Jan-07 14:30N 53°32' E 009°58'0 0.0
2018-Jan-07 14:00N 53°32' E 009°58'0 0.0
2018-Jan-07 13:30N 53°32' E 009°58'0 0.0
2018-Jan-07 13:00N 53°32' E 009°58'0 0.0
2018-Jan-07 12:30N 53°32' E 009°58'0 0.0
2018-Jan-07 12:00N 53°32' E 009°58'0 0.0
2018-Jan-07 11:30N 53°32' E 009°58'0 0.0
2018-Jan-07 11:00N 53°32' E 009°58'0 0.0
2018-Jan-07 10:30N 53°32' E 009°58'0 0.0
2018-Jan-07 10:00N 53°32' E 009°58'0 0.0
2018-Jan-07 09:30N 53°32' E 009°58'0 0.0
2018-Jan-07 09:00N 53°32' E 009°58'0 0.0
2018-Jan-07 08:30N 53°32' E 009°58'0 0.0
2018-Jan-07 08:00N 53°32' E 009°58'0 0.0
2018-Jan-07 07:30N 53°32' E 009°58'0 0.0
2018-Jan-07 07:00N 53°32' E 009°58'0 0.0
2018-Jan-07 06:30N 53°32' E 009°58'0 0.0
2018-Jan-07 06:00N 53°32' E 009°58'0 0.0
2018-Jan-07 05:30N 53°32' E 009°58'0 0.0
2018-Jan-07 05:00N 53°32' E 009°58'0 0.1
2018-Jan-07 04:30N 53°32' E 009°58'2 4.1
2018-Jan-07 04:00N 53°32' E 009°54'511.0
2018-Jan-07 03:30N 53°34' E 009°45'612.6
2018-Jan-07 03:00N 53°36' E 009°36'713.7
2018-Jan-07 02:30N 53°42' E 009°30'713.9
2018-Jan-07 02:00N 53°48' E 009°23'815.1
2018-Jan-07 01:31N 53°53' E 009°14'1313.1
2018-Jan-07 00:30N 53°50' E 008°52'612.9
2018-Jan-07 00:00N 53°53' E 008°42'713.7
2018-Jan-06 23:30N 53°58' E 008°33'713.0
2018-Jan-06 23:00N 53°59' E 008°22'613.0
2018-Jan-06 22:30N 53°60' E 008°12'611.9
2018-Jan-06 22:00N 54°01' E 008°01'612.6
2018-Jan-06 21:30N 54°03' E 007°52'11011.7
2018-Jan-06 12:07N 54°19' E 004°47'213.0
2018-Jan-06 11:59N 54°20' E 004°44'612.9
2018-Jan-06 11:29N 54°21' E 004°33'18712.0
2018-Jan-05 19:53N 54°58' W 000°44'513.0
2018-Jan-05 19:31N 54°59' W 000°52'612.9
2018-Jan-05 19:00N 54°60' W 001°04'713.3
2018-Jan-05 18:30N 55°01' W 001°15'611.1
2018-Jan-05 18:00N 55°01' W 001°25'3 5.6
2018-Jan-05 17:30N 54°59' W 001°29'2 3.6
2018-Jan-05 17:00N 54°59' W 001°32'1 1.6
2018-Jan-05 16:30N 54°58' W 001°32'0 0.0
2018-Jan-05 15:56N 54°58' W 001°32'0 0.0
2018-Jan-05 15:26N 54°58' W 001°32'0 0.0
2018-Jan-05 14:56N 54°58' W 001°32'0 0.0
2018-Jan-05 14:26N 54°58' W 001°32'0 0.0
2018-Jan-05 13:59N 54°58' W 001°32'0 0.0
2018-Jan-05 13:29N 54°58' W 001°32'0 0.0
2018-Jan-05 12:59N 54°58' W 001°32'0 0.0
2018-Jan-05 12:28N 54°58' W 001°32'0 0.0
2018-Jan-05 12:00N 54°58' W 001°32'0 0.0
2018-Jan-05 11:28N 54°58' W 001°32'0 0.0
2018-Jan-05 11:00N 54°58' W 001°32'0 0.0
2018-Jan-05 10:27N 54°58' W 001°32'0 0.0
2018-Jan-05 09:57N 54°58' W 001°32'0 0.0
2018-Jan-05 09:27N 54°58' W 001°32'0 0.0
2018-Jan-05 08:57N 54°58' W 001°32'0 0.0
2018-Jan-05 08:30N 54°58' W 001°32'0 0.0
2018-Jan-05 08:00N 54°58' W 001°32'0 0.0
2018-Jan-05 07:30N 54°58' W 001°32'0 0.0
2018-Jan-05 07:00N 54°58' W 001°32'0 0.0
2018-Jan-05 06:30N 54°58' W 001°32'0 0.3
2018-Jan-05 06:00N 54°58' W 001°32'1 2.9
2018-Jan-05 05:30N 54°59' W 001°30'2 4.4
2018-Jan-05 05:00N 54°60' W 001°27'4 7.4
2018-Jan-05 04:30N 55°02' W 001°21'1 2.0
2018-Jan-05 03:54N 55°02' W 001°23'0 0.1
2018-Jan-05 03:24N 55°02' W 001°23'0 0.1
2018-Jan-05 03:00N 55°02' W 001°23'0 0.0
2018-Jan-05 02:31N 55°02' W 001°23'0 0.1
2018-Jan-05 02:00N 55°02' W 001°23'0 0.0
2018-Jan-05 01:30N 55°02' W 001°23'0 0.1
2018-Jan-05 00:59N 55°02' W 001°23'0 0.0
2018-Jan-05 00:29N 55°02' W 001°23'0 0.1
2018-Jan-04 23:59N 55°02' W 001°23'0 0.0
2018-Jan-04 23:29N 55°02' W 001°23'0 0.1
2018-Jan-04 22:59N 55°02' W 001°23'0 0.0
2018-Jan-04 22:29N 55°02' W 001°23'0 0.0
2018-Jan-04 21:59N 55°02' W 001°23'0 0.1
2018-Jan-04 21:29N 55°02' W 001°23'0 0.0
2018-Jan-04 20:59N 55°02' W 001°23'0 0.0
2018-Jan-04 20:29N 55°02' W 001°23'0 0.1
2018-Jan-04 19:59N 55°02' W 001°23'0 0.0
2018-Jan-04 19:29N 55°02' W 001°23'0 0.1
2018-Jan-04 19:00N 55°02' W 001°23'0 0.1
2018-Jan-04 18:30N 55°02' W 001°23'0 0.0
2018-Jan-04 17:57N 55°02' W 001°23'0 0.0
2018-Jan-04 17:30N 55°02' W 001°23'0 0.0
2018-Jan-04 17:00N 55°02' W 001°23'0 0.0
2018-Jan-04 16:30N 55°02' W 001°23'0 0.0
2018-Jan-04 16:00N 55°02' W 001°23'0 0.0
2018-Jan-04 15:31N 55°02' W 001°23'0 0.0
2018-Jan-04 14:58N 55°02' W 001°23'0 0.1
2018-Jan-04 14:28N 55°02' W 001°23'0 0.1
2018-Jan-04 13:58N 55°02' W 001°23'0 0.1
2018-Jan-04 13:28N 55°02' W 001°23'0 0.1
2018-Jan-04 12:58N 55°02' W 001°23'0 0.0
2018-Jan-04 12:28N 55°02' W 001°23'0 0.0
2018-Jan-04 11:58N 55°02' W 001°23'0 0.0
2018-Jan-04 11:28N 55°02' W 001°23'0 0.0
2018-Jan-04 10:58N 55°02' W 001°23'0 0.0
2018-Jan-04 10:28N 55°02' W 001°23'0 0.0
2018-Jan-04 09:58N 55°02' W 001°23'0 0.0
2018-Jan-04 09:28N 55°02' W 001°23'0 0.0
2018-Jan-04 08:58N 55°02' W 001°23'0 0.0
2018-Jan-04 08:28N 55°02' W 001°23'0 0.1
2018-Jan-04 08:01N 55°02' W 001°23'0 0.1
2018-Jan-04 07:29N 55°02' W 001°23'0 0.1
2018-Jan-04 06:59N 55°02' W 001°23'0 0.1
2018-Jan-04 06:30N 55°02' W 001°23'0 0.0
2018-Jan-04 06:00N 55°02' W 001°23'0 0.0
2018-Jan-04 05:30N 55°02' W 001°23'0 0.0
2018-Jan-04 05:00N 55°02' W 001°23'0 0.0
2018-Jan-04 04:30N 55°02' W 001°23'0 0.0
2018-Jan-04 04:00N 55°02' W 001°23'0 0.0
2018-Jan-04 03:29N 55°02' W 001°23'0 0.0
2018-Jan-04 03:00N 55°02' W 001°23'0 0.0
2018-Jan-04 02:30N 55°02' W 001°23'0 0.1
2018-Jan-04 02:00N 55°02' W 001°23'0 0.1
2018-Jan-04 01:30N 55°02' W 001°23'0 0.0
2018-Jan-04 01:00N 55°02' W 001°23'0 0.0
2018-Jan-04 00:30N 55°02' W 001°23'0 0.0
2018-Jan-04 00:00N 55°02' W 001°23'0 0.0
2018-Jan-03 23:30N 55°02' W 001°23'0 0.1
2018-Jan-03 23:00N 55°02' W 001°23'0 0.0
2018-Jan-03 22:30N 55°02' W 001°23'0 0.0
2018-Jan-03 21:57N 55°02' W 001°23'0 0.1
2018-Jan-03 21:30N 55°02' W 001°23'0 0.0
2018-Jan-03 21:00N 55°02' W 001°23'0 0.0
2018-Jan-03 20:30N 55°02' W 001°23'0 0.1
2018-Jan-03 20:00N 55°02' W 001°23'0 0.0
2018-Jan-03 19:30N 55°02' W 001°23'0 0.0
2018-Jan-03 19:00N 55°02' W 001°23'0 0.1
2018-Jan-03 18:30N 55°02' W 001°23'0 0.0
2018-Jan-03 18:00N 55°02' W 001°23'0 0.1
2018-Jan-03 17:30N 55°02' W 001°23'0 0.1
2018-Jan-03 17:00N 55°02' W 001°23'0 0.0
2018-Jan-03 16:30N 55°02' W 001°23'0 0.1
2018-Jan-03 16:00N 55°02' W 001°23'0 0.0
2018-Jan-03 15:30N 55°02' W 001°23'0 0.0
2018-Jan-03 15:00N 55°02' W 001°23'0 0.1
2018-Jan-03 14:30N 55°02' W 001°23'0 0.0
2018-Jan-03 14:00N 55°02' W 001°23'0 0.0
2018-Jan-03 13:30N 55°02' W 001°23'0 0.0
2018-Jan-03 13:00N 55°02' W 001°23'0 0.1
2018-Jan-03 12:30N 55°02' W 001°23'0 0.0
2018-Jan-03 11:54N 55°02' W 001°23'0 0.1
2018-Jan-03 11:30N 55°02' W 001°23'0 0.0
2018-Jan-03 11:00N 55°02' W 001°23'0 0.0
2018-Jan-03 10:30N 55°02' W 001°23'0 0.1
2018-Jan-03 10:00N 55°02' W 001°23'0 0.0
2018-Jan-03 09:30N 55°02' W 001°23'0 0.0
2018-Jan-03 09:00N 55°02' W 001°23'0 0.0
2018-Jan-03 08:30N 55°02' W 001°23'0 0.0
2018-Jan-03 08:00N 55°02' W 001°23'0 0.2
2018-Jan-03 07:30N 55°02' W 001°23'0 0.0
2018-Jan-03 07:00N 55°02' W 001°23'0 0.0
2018-Jan-03 06:31N 55°02' W 001°23'0 0.0
2018-Jan-03 06:00N 55°02' W 001°23'0 0.0
2018-Jan-03 05:30N 55°02' W 001°23'0 0.0
2018-Jan-03 05:00N 55°02' W 001°23'0 0.0
2018-Jan-03 04:30N 55°02' W 001°23'0 0.0
2018-Jan-03 04:00N 55°02' W 001°23'0 0.0
2018-Jan-03 03:30N 55°02' W 001°23'0 0.0
2018-Jan-03 03:00N 55°02' W 001°23'0 0.1
2018-Jan-03 02:30N 55°02' W 001°23'0 0.1
2018-Jan-03 02:00N 55°02' W 001°23'0 0.1
2018-Jan-03 01:30N 55°02' W 001°23'0 0.1
2018-Jan-03 01:00N 55°02' W 001°23'0 0.1
2018-Jan-03 00:30N 55°02' W 001°23'0 0.1
2018-Jan-03 00:00N 55°02' W 001°23'0 0.1
2018-Jan-02 23:30N 55°02' W 001°23'0 0.0
2018-Jan-02 23:00N 55°02' W 001°23'0 0.0
2018-Jan-02 22:30N 55°02' W 001°23'0 0.0
2018-Jan-02 22:00N 55°02' W 001°23'0 0.0
2018-Jan-02 21:30N 55°02' W 001°23'0 0.0
2018-Jan-02 21:00N 55°02' W 001°23'0 0.0
2018-Jan-02 20:30N 55°02' W 001°23'0 0.0
2018-Jan-02 20:00N 55°02' W 001°23'0 0.0
2018-Jan-02 19:30N 55°02' W 001°23'0 0.0
2018-Jan-02 18:54N 55°02' W 001°23'0 0.0
2018-Jan-02 18:30N 55°02' W 001°23'0 0.0
2018-Jan-02 18:00N 55°02' W 001°23'0 0.0
2018-Jan-02 17:28N 55°02' W 001°23'0 0.0
2018-Jan-02 16:58N 55°02' W 001°23'0 0.1
2018-Jan-02 16:28N 55°02' W 001°23'0 0.1
2018-Jan-02 15:58N 55°02' W 001°23'0 0.0
2018-Jan-02 15:28N 55°02' W 001°23'0 0.1
2018-Jan-02 14:58N 55°02' W 001°23'0 0.1
2018-Jan-02 14:25N 55°02' W 001°23'0 0.1
2018-Jan-02 13:58N 55°02' W 001°23'0 0.0
2018-Jan-02 13:28N 55°02' W 001°23'0 0.0
2018-Jan-02 12:58N 55°02' W 001°23'0 0.0
2018-Jan-02 12:28N 55°02' W 001°23'0 0.1
2018-Jan-02 11:58N 55°02' W 001°23'0 0.0
2018-Jan-02 11:28N 55°02' W 001°23'0 0.1
2018-Jan-02 10:58N 55°02' W 001°23'0 0.0
2018-Jan-02 10:28N 55°02' W 001°23'0 0.0
2018-Jan-02 09:58N 55°02' W 001°23'0 0.0
2018-Jan-02 09:28N 55°02' W 001°23'0 0.0
2018-Jan-02 08:28N 55°02' W 001°23'0 0.0
2018-Jan-02 07:58N 55°02' W 001°23'0 0.0
2018-Jan-02 07:28N 55°02' W 001°23'0 0.0
2018-Jan-02 06:58N 55°02' W 001°23'0 0.0
2018-Jan-02 06:28N 55°02' W 001°23'0 0.1
2018-Jan-02 05:58N 55°02' W 001°23'0 0.1
2018-Jan-02 05:28N 55°02' W 001°23'0 0.0
2018-Jan-02 04:28N 55°02' W 001°23'0 0.1
2018-Jan-02 03:58N 55°02' W 001°23'0 0.0
2018-Jan-02 03:28N 55°02' W 001°23'0 0.0
2018-Jan-02 02:58N 55°02' W 001°23'0 0.0
2018-Jan-02 02:28N 55°02' W 001°23'0 0.0
2018-Jan-02 02:01N 55°02' W 001°23'0 0.0
2018-Jan-02 01:29N 55°02' W 001°23'0 0.0
2018-Jan-02 00:59N 55°02' W 001°23'0 0.1
2018-Jan-02 00:29N 55°02' W 001°23'0 0.0
2018-Jan-01 23:59N 55°02' W 001°23'0 0.0
2018-Jan-01 23:26N 55°02' W 001°23'0 0.1
2018-Jan-01 22:59N 55°02' W 001°23'0 0.1
2018-Jan-01 22:29N 55°02' W 001°23'0 0.1
2018-Jan-01 21:59N 55°02' W 001°23'0 0.0
2018-Jan-01 21:29N 55°02' W 001°23'0 0.1
2018-Jan-01 20:59N 55°02' W 001°23'  
Track history (hours):
 
Tides and Currents Weather Stations Pressure Air Temp Water Temp Dewpoint Dewpoint Depression Visibility Wind Speed Wind Dir Waves Ship Positions

BBC Congo

Last reported at 2018-Jan-11 20:58 UTC. Time now 2018-Jan-20 01:44 UTC.
Position N 48°30' W 006°35'.
Warning: this ship's position is 8 days out of date.

Length 142 m; draft 7.8 m.

Type: Ship. MMSI: 305466000.

Date/timePositionNaut miles runAvg speedWind from/ knotsBaromVisibWave heightAir tempDewpointWater temp
2018-Jan-11 20:58N 48°30' W 006°35'3913.3
2018-Jan-11 18:04N 48°52' W 005°48'114.4
2018-Jan-11 17:59N 48°53' W 005°47'8912.0
2018-Jan-11 10:32N 49°40' W 003°50'012.4
2018-Jan-11 10:30N 49°40' W 003°49'912.6
2018-Jan-11 09:47N 49°45' W 003°37'413.0
2018-Jan-11 09:27N 49°47' W 003°31'613.2
2018-Jan-11 09:00N 49°49' W 003°23'713.5
2018-Jan-11 08:31N 49°52' W 003°14'713.7
2018-Jan-11 08:00N 49°56' W 003°04'713.6
2018-Jan-11 07:30N 49°59' W 002°55'713.5
2018-Jan-11 07:01N 50°02' W 002°45'713.2
2018-Jan-11 06:30N 50°04' W 002°35'8511.8
2018-Jan-10 23:19N 50°26' W 000°27'413.8
2018-Jan-10 23:00N 50°27' W 000°20'713.8
2018-Jan-10 22:30N 50°29' W 000°10'713.9
2018-Jan-10 22:00N 50°31' E 000°00'713.8
2018-Jan-10 21:30N 50°33' E 000°11'713.6
2018-Jan-10 21:00N 50°35' E 000°21'713.2
2018-Jan-10 20:30N 50°37' E 000°31'612.8
2018-Jan-10 20:00N 50°40' E 000°40'612.5
2018-Jan-10 19:30N 50°44' E 000°48'612.0
2018-Jan-10 19:00N 50°47' E 000°55'611.5
2018-Jan-10 18:30N 50°51' E 001°02'611.3
2018-Jan-10 18:00N 50°54' E 001°10'511.0
2018-Jan-10 17:30N 50°58' E 001°16'510.8
2018-Jan-10 17:00N 51°01' E 001°23'611.3
2018-Jan-10 16:30N 51°05' E 001°30'611.8
2018-Jan-10 16:00N 51°09' E 001°37'612.5
2018-Jan-10 15:30N 51°13' E 001°44'612.8
2018-Jan-10 15:00N 51°19' E 001°49'713.1
2018-Jan-10 14:30N 51°25' E 001°54'713.1
2018-Jan-10 14:00N 51°30' E 002°00'612.6
2018-Jan-10 13:30N 51°35' E 002°07'612.6
2018-Jan-10 13:00N 51°40' E 002°14'612.3
2018-Jan-10 12:29N 51°44' E 002°20'13311.7
2018-Jan-10 01:02N 53°29' E 004°37'111.0
2018-Jan-10 00:57N 53°29' E 004°39'511.2
2018-Jan-10 00:30N 53°31' E 004°47'611.3
2018-Jan-10 00:00N 53°33' E 004°56'511.0
2018-Jan-09 23:30N 53°34' E 005°04'710.6
2018-Jan-09 22:53N 53°37' E 005°15'8912.8
2018-Jan-09 15:56N 54°01' E 007°39'512.0
2018-Jan-09 15:30N 54°01' E 007°48'612.2
2018-Jan-09 15:00N 54°01' E 007°58'612.1
2018-Jan-09 14:30N 54°00' E 008°09'510.8
2018-Jan-09 14:00N 54°00' E 008°18'611.2
2018-Jan-09 13:30N 53°59' E 008°27'611.9
2018-Jan-09 13:00N 53°58' E 008°37'714.2
2018-Jan-09 12:30N 53°52' E 008°44'714.5
2018-Jan-09 12:00N 53°51' E 008°56'715.0
2018-Jan-09 11:30N 53°53' E 009°09'714.3
2018-Jan-09 11:00N 53°51' E 009°20'815.3
2018-Jan-09 10:30N 53°44' E 009°27'713.8
2018-Jan-09 10:01N 53°38' E 009°32'713.2
2018-Jan-09 09:31N 53°34' E 009°41'611.5
2018-Jan-09 09:01N 53°33' E 009°51'4 8.1
2018-Jan-09 08:31N 53°32' E 009°57'0 0.9
2018-Jan-09 07:59N 53°32' E 009°58'0 0.0
2018-Jan-09 07:29N 53°32' E 009°58'0 0.0
2018-Jan-09 06:59N 53°32' E 009°58'0 0.0
2018-Jan-09 06:29N 53°32' E 009°58'0 0.0
2018-Jan-09 05:59N 53°32' E 009°58'0 0.0
2018-Jan-09 05:29N 53°32' E 009°58'0 0.0
2018-Jan-09 04:59N 53°32' E 009°58'0 0.0
2018-Jan-09 04:29N 53°32' E 009°58'0 0.0
2018-Jan-09 03:59N 53°32' E 009°58'0 0.0
2018-Jan-09 03:29N 53°32' E 009°58'0 0.0
2018-Jan-09 03:00N 53°32' E 009°58'0 0.0
2018-Jan-09 02:29N 53°32' E 009°58'0 0.0
2018-Jan-09 01:59N 53°32' E 009°58'0 0.0
2018-Jan-09 01:29N 53°32' E 009°58'0 0.0
2018-Jan-09 00:56N 53°32' E 009°58'0 0.0
2018-Jan-09 00:29N 53°32' E 009°58'0 0.0
2018-Jan-08 23:59N 53°32' E 009°58'0 0.0
2018-Jan-08 23:29N 53°32' E 009°58'0 0.0
2018-Jan-08 22:59N 53°32' E 009°58'0 0.0
2018-Jan-08 22:29N 53°32' E 009°58'0 0.0
2018-Jan-08 21:59N 53°32' E 009°58'0 0.0
2018-Jan-08 21:29N 53°32' E 009°58'0 0.0
2018-Jan-08 20:56N 53°32' E 009°58'0 0.0
2018-Jan-08 20:29N 53°32' E 009°58'0 0.0
2018-Jan-08 19:59N 53°32' E 009°58'0 0.0
2018-Jan-08 19:29N 53°32' E 009°58'0 0.0
2018-Jan-08 18:59N 53°32' E 009°58'0 0.0
2018-Jan-08 18:29N 53°32' E 009°58'0 0.0
2018-Jan-08 17:59N 53°32' E 009°58'0 0.0
2018-Jan-08 17:29N 53°32' E 009°58'0 0.0
2018-Jan-08 16:59N 53°32' E 009°58'0 0.0
2018-Jan-08 16:29N 53°32' E 009°58'0 0.0
2018-Jan-08 15:59N 53°32' E 009°58'0 0.0
2018-Jan-08 15:29N 53°32' E 009°58'0 0.0
2018-Jan-08 14:59N 53°32' E 009°58'0 0.0
2018-Jan-08 14:29N 53°32' E 009°58'0 0.0
2018-Jan-08 13:59N 53°32' E 009°58'0 0.0
2018-Jan-08 13:29N 53°32' E 009°58'0 0.0
2018-Jan-08 12:59N 53°32' E 009°58'0 0.0
2018-Jan-08 12:29N 53°32' E 009°58'0 0.0
2018-Jan-08 11:59N 53°32' E 009°58'0 0.0
2018-Jan-08 11:29N 53°32' E 009°58'0 0.0
2018-Jan-08 11:01N 53°32' E 009°58'1 1.6
2018-Jan-08 10:31N 53°32' E 009°57'4 7.1
2018-Jan-08 10:01N 53°33' E 009°51'1 1.3
2018-Jan-08 09:29N 53°33' E 009°50'0 0.0
2018-Jan-08 08:59N 53°33' E 009°50'0 0.0
2018-Jan-08 08:29N 53°33' E 009°50'0 0.0
2018-Jan-08 07:59N 53°33' E 009°50'0 0.0
2018-Jan-08 07:29N 53°33' E 009°50'0 0.0
2018-Jan-08 06:59N 53°33' E 009°50'0 0.0
2018-Jan-08 06:29N 53°33' E 009°50'0 0.0
2018-Jan-08 05:56N 53°33' E 009°50'0 0.0
2018-Jan-08 05:29N 53°33' E 009°50'0 0.6
2018-Jan-08 05:00N 53°33' E 009°50'3 6.1
2018-Jan-08 04:30N 53°32' E 009°55'2 3.0
2018-Jan-08 04:00N 53°32' E 009°58'0 0.0
2018-Jan-08 03:30N 53°32' E 009°58'0 0.0
2018-Jan-08 03:00N 53°32' E 009°58'0 0.0
2018-Jan-08 02:30N 53°32' E 009°58'0 0.0
2018-Jan-08 02:00N 53°32' E 009°58'0 0.0
2018-Jan-08 01:30N 53°32' E 009°58'0 0.0
2018-Jan-08 00:57N 53°32' E 009°58'0 0.0
2018-Jan-08 00:30N 53°32' E 009°58'0 0.0
2018-Jan-08 00:00N 53°32' E 009°58'0 0.0
2018-Jan-07 23:30N 53°32' E 009°58'0 0.0
2018-Jan-07 23:00N 53°32' E 009°58'0 0.0
2018-Jan-07 22:30N 53°32' E 009°58'0 0.0
2018-Jan-07 21:57N 53°32' E 009°58'0 0.0
2018-Jan-07 21:30N 53°32' E 009°58'0 0.0
2018-Jan-07 21:00N 53°32' E 009°58'0 0.0
2018-Jan-07 20:27N 53°32' E 009°58'0 0.0
2018-Jan-07 20:00N 53°32' E 009°58'0 0.0
2018-Jan-07 19:30N 53°32' E 009°58'0 0.0
2018-Jan-07 19:00N 53°32' E 009°58'0 0.0
2018-Jan-07 18:30N 53°32' E 009°58'0 0.0
2018-Jan-07 18:00N 53°32' E 009°58'0 0.0
2018-Jan-07 17:30N 53°32' E 009°58'0 0.0
2018-Jan-07 17:00N 53°32' E 009°58'0 0.0
2018-Jan-07 16:30N 53°32' E 009°58'0 0.0
2018-Jan-07 16:00N 53°32' E 009°58'0 0.0
2018-Jan-07 15:30N 53°32' E 009°58'0 0.0
2018-Jan-07 15:00N 53°32' E 009°58'0 0.0
2018-Jan-07 14:30N 53°32' E 009°58'0 0.0
2018-Jan-07 14:00N 53°32' E 009°58'0 0.0
2018-Jan-07 13:30N 53°32' E 009°58'0 0.0
2018-Jan-07 13:00N 53°32' E 009°58'0 0.0
2018-Jan-07 12:30N 53°32' E 009°58'0 0.0
2018-Jan-07 12:00N 53°32' E 009°58'0 0.0
2018-Jan-07 11:30N 53°32' E 009°58'0 0.0
2018-Jan-07 11:00N 53°32' E 009°58'0 0.0
2018-Jan-07 10:30N 53°32' E 009°58'0 0.0
2018-Jan-07 10:00N 53°32' E 009°58'0 0.0
2018-Jan-07 09:30N 53°32' E 009°58'0 0.0
2018-Jan-07 09:00N 53°32' E 009°58'0 0.0
2018-Jan-07 08:30N 53°32' E 009°58'0 0.0
2018-Jan-07 08:00N 53°32' E 009°58'0 0.0
2018-Jan-07 07:30N 53°32' E 009°58'0 0.0
2018-Jan-07 07:00N 53°32' E 009°58'0 0.0
2018-Jan-07 06:30N 53°32' E 009°58'0 0.0
2018-Jan-07 06:00N 53°32' E 009°58'0 0.0
2018-Jan-07 05:30N 53°32' E 009°58'0 0.0
2018-Jan-07 05:00N 53°32' E 009°58'0 0.1
2018-Jan-07 04:30N 53°32' E 009°58'2 4.1
2018-Jan-07 04:00N 53°32' E 009°54'511.0
2018-Jan-07 03:30N 53°34' E 009°45'612.6
2018-Jan-07 03:00N 53°36' E 009°36'713.7
2018-Jan-07 02:30N 53°42' E 009°30'713.9
2018-Jan-07 02:00N 53°48' E 009°23'815.1
2018-Jan-07 01:31N 53°53' E 009°14'1313.1
2018-Jan-07 00:30N 53°50' E 008°52'612.9
2018-Jan-07 00:00N 53°53' E 008°42'713.7
2018-Jan-06 23:30N 53°58' E 008°33'713.0
2018-Jan-06 23:00N 53°59' E 008°22'613.0
2018-Jan-06 22:30N 53°60' E 008°12'611.9
2018-Jan-06 22:00N 54°01' E 008°01'612.6
2018-Jan-06 21:30N 54°03' E 007°52'11011.7
2018-Jan-06 12:07N 54°19' E 004°47'213.0
2018-Jan-06 11:59N 54°20' E 004°44'612.9
2018-Jan-06 11:29N 54°21' E 004°33'18712.0
2018-Jan-05 19:53N 54°58' W 000°44'513.0
2018-Jan-05 19:31N 54°59' W 000°52'612.9
2018-Jan-05 19:00N 54°60' W 001°04'713.3
2018-Jan-05 18:30N 55°01' W 001°15'611.1
2018-Jan-05 18:00N 55°01' W 001°25'3 5.6
2018-Jan-05 17:30N 54°59' W 001°29'2 3.6
2018-Jan-05 17:00N 54°59' W 001°32'1 1.6
2018-Jan-05 16:30N 54°58' W 001°32'0 0.0
2018-Jan-05 15:56N 54°58' W 001°32'0 0.0
2018-Jan-05 15:26N 54°58' W 001°32'0 0.0
2018-Jan-05 14:56N 54°58' W 001°32'0 0.0
2018-Jan-05 14:26N 54°58' W 001°32'0 0.0
2018-Jan-05 13:59N 54°58' W 001°32'0 0.0
2018-Jan-05 13:29N 54°58' W 001°32'0 0.0
2018-Jan-05 12:59N 54°58' W 001°32'0 0.0
2018-Jan-05 12:28N 54°58' W 001°32'0 0.0
2018-Jan-05 12:00N 54°58' W 001°32'0 0.0
2018-Jan-05 11:28N 54°58' W 001°32'0 0.0
2018-Jan-05 11:00N 54°58' W 001°32'0 0.0
2018-Jan-05 10:27N 54°58' W 001°32'0 0.0
2018-Jan-05 09:57N 54°58' W 001°32'0 0.0
2018-Jan-05 09:27N 54°58' W 001°32'0 0.0
2018-Jan-05 08:57N 54°58' W 001°32'0 0.0
2018-Jan-05 08:30N 54°58' W 001°32'0 0.0
2018-Jan-05 08:00N 54°58' W 001°32'0 0.0
2018-Jan-05 07:30N 54°58' W 001°32'0 0.0
2018-Jan-05 07:00N 54°58' W 001°32'0 0.0
2018-Jan-05 06:30N 54°58' W 001°32'0 0.3
2018-Jan-05 06:00N 54°58' W 001°32'1 2.9
2018-Jan-05 05:30N 54°59' W 001°30'2 4.4
2018-Jan-05 05:00N 54°60' W 001°27'4 7.4
2018-Jan-05 04:30N 55°02' W 001°21'1 2.0
2018-Jan-05 03:54N 55°02' W 001°23'0 0.1
2018-Jan-05 03:24N 55°02' W 001°23'0 0.1
2018-Jan-05 03:00N 55°02' W 001°23'0 0.0
2018-Jan-05 02:31N 55°02' W 001°23'0 0.1
2018-Jan-05 02:00N 55°02' W 001°23'0 0.0
2018-Jan-05 01:30N 55°02' W 001°23'0 0.1
2018-Jan-05 00:59N 55°02' W 001°23'0 0.0
2018-Jan-05 00:29N 55°02' W 001°23'0 0.1
2018-Jan-04 23:59N 55°02' W 001°23'0 0.0
2018-Jan-04 23:29N 55°02' W 001°23'0 0.1
2018-Jan-04 22:59N 55°02' W 001°23'0 0.0
2018-Jan-04 22:29N 55°02' W 001°23'0 0.0
2018-Jan-04 21:59N 55°02' W 001°23'0 0.1
2018-Jan-04 21:29N 55°02' W 001°23'0 0.0
2018-Jan-04 20:59N 55°02' W 001°23'0 0.0
2018-Jan-04 20:29N 55°02' W 001°23'0 0.1
2018-Jan-04 19:59N 55°02' W 001°23'0 0.0
2018-Jan-04 19:29N 55°02' W 001°23'0 0.1
2018-Jan-04 19:00N 55°02' W 001°23'0 0.1
2018-Jan-04 18:30N 55°02' W 001°23'0 0.0
2018-Jan-04 17:57N 55°02' W 001°23'0 0.0
2018-Jan-04 17:30N 55°02' W 001°23'0 0.0
2018-Jan-04 17:00N 55°02' W 001°23'0 0.0
2018-Jan-04 16:30N 55°02' W 001°23'0 0.0
2018-Jan-04 16:00N 55°02' W 001°23'0 0.0
2018-Jan-04 15:31N 55°02' W 001°23'0 0.0
2018-Jan-04 14:58N 55°02' W 001°23'0 0.1
2018-Jan-04 14:28N 55°02' W 001°23'0 0.1
2018-Jan-04 13:58N 55°02' W 001°23'0 0.1
2018-Jan-04 13:28N 55°02' W 001°23'0 0.1
2018-Jan-04 12:58N 55°02' W 001°23'0 0.0
2018-Jan-04 12:28N 55°02' W 001°23'0 0.0
2018-Jan-04 11:58N 55°02' W 001°23'0 0.0
2018-Jan-04 11:28N 55°02' W 001°23'0 0.0
2018-Jan-04 10:58N 55°02' W 001°23'0 0.0
2018-Jan-04 10:28N 55°02' W 001°23'0 0.0
2018-Jan-04 09:58N 55°02' W 001°23'0 0.0
2018-Jan-04 09:28N 55°02' W 001°23'0 0.0
2018-Jan-04 08:58N 55°02' W 001°23'0 0.0
2018-Jan-04 08:28N 55°02' W 001°23'0 0.1
2018-Jan-04 08:01N 55°02' W 001°23'0 0.1
2018-Jan-04 07:29N 55°02' W 001°23'0 0.1
2018-Jan-04 06:59N 55°02' W 001°23'0 0.1
2018-Jan-04 06:30N 55°02' W 001°23'0 0.0
2018-Jan-04 06:00N 55°02' W 001°23'0 0.0
2018-Jan-04 05:30N 55°02' W 001°23'0 0.0
2018-Jan-04 05:00N 55°02' W 001°23'0 0.0
2018-Jan-04 04:30N 55°02' W 001°23'0 0.0
2018-Jan-04 04:00N 55°02' W 001°23'0 0.0
2018-Jan-04 03:29N 55°02' W 001°23'0 0.0
2018-Jan-04 03:00N 55°02' W 001°23'0 0.0
2018-Jan-04 02:30N 55°02' W 001°23'0 0.1
2018-Jan-04 02:00N 55°02' W 001°23'0 0.1
2018-Jan-04 01:30N 55°02' W 001°23'0 0.0
2018-Jan-04 01:00N 55°02' W 001°23'0 0.0
2018-Jan-04 00:30N 55°02' W 001°23'0 0.0
2018-Jan-04 00:00N 55°02' W 001°23'0 0.0
2018-Jan-03 23:30N 55°02' W 001°23'0 0.1
2018-Jan-03 23:00N 55°02' W 001°23'0 0.0
2018-Jan-03 22:30N 55°02' W 001°23'0 0.0
2018-Jan-03 21:57N 55°02' W 001°23'0 0.1
2018-Jan-03 21:30N 55°02' W 001°23'0 0.0
2018-Jan-03 21:00N 55°02' W 001°23'0 0.0
2018-Jan-03 20:30N 55°02' W 001°23'0 0.1
2018-Jan-03 20:00N 55°02' W 001°23'0 0.0
2018-Jan-03 19:30N 55°02' W 001°23'0 0.0
2018-Jan-03 19:00N 55°02' W 001°23'0 0.1
2018-Jan-03 18:30N 55°02' W 001°23'0 0.0
2018-Jan-03 18:00N 55°02' W 001°23'0 0.1
2018-Jan-03 17:30N 55°02' W 001°23'0 0.1
2018-Jan-03 17:00N 55°02' W 001°23'0 0.0
2018-Jan-03 16:30N 55°02' W 001°23'0 0.1
2018-Jan-03 16:00N 55°02' W 001°23'0 0.0
2018-Jan-03 15:30N 55°02' W 001°23'0 0.0
2018-Jan-03 15:00N 55°02' W 001°23'0 0.1
2018-Jan-03 14:30N 55°02' W 001°23'0 0.0
2018-Jan-03 14:00N 55°02' W 001°23'0 0.0
2018-Jan-03 13:30N 55°02' W 001°23'0 0.0
2018-Jan-03 13:00N 55°02' W 001°23'0 0.1
2018-Jan-03 12:30N 55°02' W 001°23'0 0.0
2018-Jan-03 11:54N 55°02' W 001°23'0 0.1
2018-Jan-03 11:30N 55°02' W 001°23'0 0.0
2018-Jan-03 11:00N 55°02' W 001°23'0 0.0
2018-Jan-03 10:30N 55°02' W 001°23'0 0.1
2018-Jan-03 10:00N 55°02' W 001°23'0 0.0
2018-Jan-03 09:30N 55°02' W 001°23'0 0.0
2018-Jan-03 09:00N 55°02' W 001°23'0 0.0
2018-Jan-03 08:30N 55°02' W 001°23'0 0.0
2018-Jan-03 08:00N 55°02' W 001°23'0 0.2
2018-Jan-03 07:30N 55°02' W 001°23'0 0.0
2018-Jan-03 07:00N 55°02' W 001°23'0 0.0
2018-Jan-03 06:31N 55°02' W 001°23'0 0.0
2018-Jan-03 06:00N 55°02' W 001°23'0 0.0
2018-Jan-03 05:30N 55°02' W 001°23'0 0.0
2018-Jan-03 05:00N 55°02' W 001°23'0 0.0
2018-Jan-03 04:30N 55°02' W 001°23'0 0.0
2018-Jan-03 04:00N 55°02' W 001°23'0 0.0
2018-Jan-03 03:30N 55°02' W 001°23'0 0.0
2018-Jan-03 03:00N 55°02' W 001°23'0 0.1
2018-Jan-03 02:30N 55°02' W 001°23'0 0.1
2018-Jan-03 02:00N 55°02' W 001°23'0 0.1
2018-Jan-03 01:30N 55°02' W 001°23'0 0.1
2018-Jan-03 01:00N 55°02' W 001°23'0 0.1
2018-Jan-03 00:30N 55°02' W 001°23'0 0.1
2018-Jan-03 00:00N 55°02' W 001°23'0 0.1
2018-Jan-02 23:30N 55°02' W 001°23'0 0.0
2018-Jan-02 23:00N 55°02' W 001°23'0 0.0
2018-Jan-02 22:30N 55°02' W 001°23'0 0.0
2018-Jan-02 22:00N 55°02' W 001°23'0 0.0
2018-Jan-02 21:30N 55°02' W 001°23'0 0.0
2018-Jan-02 21:00N 55°02' W 001°23'0 0.0
2018-Jan-02 20:30N 55°02' W 001°23'0 0.0
2018-Jan-02 20:00N 55°02' W 001°23'0 0.0
2018-Jan-02 19:30N 55°02' W 001°23'0 0.0
2018-Jan-02 18:54N 55°02' W 001°23'0 0.0
2018-Jan-02 18:30N 55°02' W 001°23'0 0.0
2018-Jan-02 18:00N 55°02' W 001°23'0 0.0
2018-Jan-02 17:28N 55°02' W 001°23'0 0.0
2018-Jan-02 16:58N 55°02' W 001°23'0 0.1
2018-Jan-02 16:28N 55°02' W 001°23'0 0.1
2018-Jan-02 15:58N 55°02' W 001°23'0 0.0
2018-Jan-02 15:28N 55°02' W 001°23'0 0.1
2018-Jan-02 14:58N 55°02' W 001°23'0 0.1
2018-Jan-02 14:25N 55°02' W 001°23'0 0.1
2018-Jan-02 13:58N 55°02' W 001°23'0 0.0
2018-Jan-02 13:28N 55°02' W 001°23'0 0.0
2018-Jan-02 12:58N 55°02' W 001°23'0 0.0
2018-Jan-02 12:28N 55°02' W 001°23'0 0.1
2018-Jan-02 11:58N 55°02' W 001°23'0 0.0
2018-Jan-02 11:28N 55°02' W 001°23'0 0.1
2018-Jan-02 10:58N 55°02' W 001°23'0 0.0
2018-Jan-02 10:28N 55°02' W 001°23'0 0.0
2018-Jan-02 09:58N 55°02' W 001°23'0 0.0
2018-Jan-02 09:28N 55°02' W 001°23'0 0.0
2018-Jan-02 08:28N 55°02' W 001°23'0 0.0
2018-Jan-02 07:58N 55°02' W 001°23'0 0.0
2018-Jan-02 07:28N 55°02' W 001°23'0 0.0
2018-Jan-02 06:58N 55°02' W 001°23'0 0.0
2018-Jan-02 06:28N 55°02' W 001°23'0 0.1
2018-Jan-02 05:58N 55°02' W 001°23'0 0.1
2018-Jan-02 05:28N 55°02' W 001°23'0 0.0
2018-Jan-02 04:28N 55°02' W 001°23'0 0.1
2018-Jan-02 03:58N 55°02' W 001°23'0 0.0
2018-Jan-02 03:28N 55°02' W 001°23'0 0.0
2018-Jan-02 02:58N 55°02' W 001°23'0 0.0
2018-Jan-02 02:28N 55°02' W 001°23'0 0.0
2018-Jan-02 02:01N 55°02' W 001°23'0 0.0
2018-Jan-02 01:29N 55°02' W 001°23'0 0.0
2018-Jan-02 00:59N 55°02' W 001°23'0 0.1
2018-Jan-02 00:29N 55°02' W 001°23'0 0.0
2018-Jan-01 23:59N 55°02' W 001°23'0 0.0
2018-Jan-01 23:26N 55°02' W 001°23'0 0.1
2018-Jan-01 22:59N 55°02' W 001°23'0 0.1
2018-Jan-01 22:29N 55°02' W 001°23'0 0.1
2018-Jan-01 21:59N 55°02' W 001°23'0 0.0
2018-Jan-01 21:29N 55°02' W 001°23'0 0.1
2018-Jan-01 20:59N 55°02' W 001°23'  

Dump ship's entire track history